首页
METAR-TAF:

METAR-TAF

机场 :

Châteaudun, 法国

纬度: 48-03N, 经度: 001-23E, 海拔: 134米

当前天气观测

该预报发布于37分钟前的21:30 UTC
风速7节,风向西南
温度 2°C
湿度 93%
气压 1004 hPa
能见度10公里或以上

METAR: LFOC 122130Z AUTO 22007KT 9999 ////// 02/01 Q1004

时间: 23:07 (22:07 UTC)

预报

该预报发布于14小时和7分钟前的08:00 UTC
预报有效从12日的 09点(UTC)到 13日的 09点(UTC)
风速12节,风向西转西南
能见度10公里或以上
散云层高于2500英尺
散云层高于5000英尺
短暂存在
从 12日的 11点(UTC)到 12日的 17点(UTC)
风速15节,风向西转西南,有时为25节阵风
能見度: 4000
多云层高于2500英尺, 塔状积云.
小阵雨
几率 30% :
短暂存在
从 13日的 01点(UTC)到 13日的 06点(UTC)
能見度: 4000
轻雾

TAF: LFOC 120800Z 1209/1309 24012KT 9999 SCT025 SCT050 TEMPO 1211/1217 25015G25KT 4000 -SHRA BKN025TCU PROB30 TEMPO 1301/1306 4000 BR

超过4000个机场的气象观测和天气预报(METAR&TAF报告)。

可查询的气象台以黄色和红色小点在地图上表示。

将鼠标移到小点上方,可查看气象台名称。

然后点击查看天气观测和预报。

如需切换地图:点击带黑十字的绿色按钮放大地图;点击带横线的绿色按钮缩小地图;或者点击绿色箭头查看邻近地区的地图。


METAR-TAF: